Time;durP1;ratioP1;P1;durP2;ratioP2;P2;SDS_P1;SDS_P2;PMS_P1;PMS_P2;Temp;Humidity;BMP_temperature;BMP_pressure;BME280_temperature;BME280_humidity;BME280_pressure;Samples;Min_cycle;Max_cycle;Signal;HPM_P1;HPM_P2
2022/05/07 00:01:19;;;;;;;23.97;2.50;;;15.60;99.90;16.00;102147.00;;;;5110562;28;20558;-81
2022/05/07 00:03:52;;;;;;;0.83;0.83;;;15.80;99.90;15.20;102116.00;;;;5111313;28;20181;-82
2022/05/07 00:06:18;;;;;;;0.60;0.60;;;15.50;99.90;15.80;102113.00;;;;5110696;28;20184;-84
2022/05/07 00:08:50;;;;;;;1.17;1.17;;;15.60;99.90;16.00;102154.00;;;;5093501;28;20219;-83
2022/05/07 00:11:20;;;;;;;1.63;1.63;;;15.80;99.90;15.70;102155.00;;;;5109637;28;20190;-83
2022/05/07 00:13:56;;;;;;;0.60;0.60;;;15.80;99.90;15.70;102160.00;;;;5092859;28;20217;-82
2022/05/07 00:19:17;;;;;;;0.50;0.50;;;15.70;99.90;15.90;102138.00;;;;5108064;28;20200;-82
2022/05/07 00:21:49;;;;;;;2.10;2.00;;;15.80;99.90;15.70;102148.00;;;;5094180;28;20275;-82
2022/05/07 00:24:17;;;;;;;1.13;1.10;;;15.80;99.90;15.20;102151.00;;;;5093601;28;20264;-82
2022/05/07 00:26:46;;;;;;;0.50;0.50;;;15.60;99.90;15.00;102121.00;;;;5092802;28;20188;-82
2022/05/07 00:29:20;;;;;;;1.33;1.33;;;15.30;99.90;15.00;102108.00;;;;5094133;28;20184;-82
2022/05/07 00:31:51;;;;;;;0.87;0.87;;;15.20;99.90;15.00;102118.00;;;;5109474;28;20317;-80
2022/05/07 00:34:19;;;;;;;1.17;1.17;;;15.20;99.90;14.60;102133.00;;;;5094042;28;20230;-80
2022/05/07 00:36:45;;;;;;;2.13;2.03;;;15.10;99.90;15.20;102103.00;;;;5109573;28;20181;-81
2022/05/07 00:39:11;;;;;;;1.43;0.93;;;15.20;99.90;14.60;102140.00;;;;5094751;28;20203;-82
2022/05/07 00:41:45;;;;;;;1.20;1.20;;;15.10;99.90;14.90;102089.00;;;;5093731;28;20786;-79
2022/05/07 00:44:11;;;;;;;0.50;0.50;;;15.10;99.90;15.30;102091.00;;;;5093055;28;20250;-79
2022/05/07 00:46:50;;;;;;;0.40;0.40;;;15.20;99.90;15.10;102126.00;;;;5093924;28;20291;-79
2022/05/07 00:49:18;;;;;;;3.43;2.93;;;15.20;99.90;15.20;102148.00;;;;5109545;28;20183;-80
2022/05/07 00:51:51;;;;;;;0.80;0.80;;;15.30;99.90;14.80;102133.00;;;;5108655;28;20199;-81
2022/05/07 00:54:23;;;;;;;0.40;0.40;;;15.20;99.90;15.00;102132.00;;;;5109228;28;20255;-81
2022/05/07 00:56:51;;;;;;;0.60;0.60;;;15.20;99.90;15.00;102121.00;;;;5109709;28;20181;-81
2022/05/07 00:59:20;;;;;;;0.50;0.50;;;15.10;99.90;14.90;102118.00;;;;5109506;28;20606;-81
2022/05/07 01:01:45;;;;;;;0.70;0.70;;;15.10;99.90;15.00;102106.00;;;;5109256;28;20197;-81
2022/05/07 01:04:17;;;;;;;0.50;0.50;;;15.10;99.90;14.40;102117.00;;;;5110183;28;20179;-80
2022/05/07 01:06:48;;;;;;;3.33;2.40;;;14.90;99.90;14.80;102082.00;;;;5110515;28;20226;-82
2022/05/07 01:09:15;;;;;;;10.03;4.83;;;15.00;99.90;15.00;102101.00;;;;5108525;28;20179;-82
2022/05/07 01:11:44;;;;;;;0.40;0.40;;;15.10;99.90;14.60;102126.00;;;;5094595;28;20692;-80
2022/05/07 01:14:10;;;;;;;0.40;0.40;;;15.00;99.90;14.40;102077.00;;;;5093165;28;20262;-76
2022/05/07 01:16:36;;;;;;;0.50;0.50;;;14.90;99.90;14.80;102125.00;;;;5093062;28;20223;-80
2022/05/07 01:19:05;;;;;;;0.40;0.40;;;14.90;99.90;14.70;102094.00;;;;5108403;28;20199;-80
2022/05/07 01:21:31;;;;;;;4.97;2.77;;;15.00;99.90;14.50;102060.00;;;;5109957;28;20258;-82
2022/05/07 01:24:02;;;;;;;1.77;1.67;;;15.00;99.90;14.20;102100.00;;;;5092784;28;20632;-82
2022/05/07 01:26:29;;;;;;;0.60;0.60;;;14.80;99.90;14.50;102112.00;;;;5107760;28;20181;-82
2022/05/07 01:29:03;;;;;;;0.30;0.30;;;14.80;99.90;14.20;102108.00;;;;5092481;28;20188;-82
2022/05/07 01:31:32;;;;;;;1.70;1.60;;;14.70;99.90;14.40;102120.00;;;;5092047;28;20307;-82
2022/05/07 01:34:00;;;;;;;1.37;1.37;;;14.80;99.90;13.90;102086.00;;;;5108933;28;20186;-81
2022/05/07 01:36:29;;;;;;;0.70;0.70;;;14.50;99.90;14.00;102102.00;;;;5092378;28;20207;-82
2022/05/07 01:38:55;;;;;;;4.87;4.47;;;14.30;99.90;13.60;102100.00;;;;5091134;28;20174;-81
2022/05/07 01:41:25;;;;;;;1.30;1.30;;;14.20;99.90;13.90;102102.00;;;;5110139;28;20179;-82
2022/05/07 01:43:54;;;;;;;0.93;0.93;;;14.20;99.90;13.90;102089.00;;;;5092576;28;20188;-82
2022/05/07 01:49:08;;;;;;;1.47;1.43;;;14.40;99.90;14.20;102096.00;;;;5092004;28;20278;-82
2022/05/07 01:51:36;;;;;;;1.60;1.47;;;14.30;99.90;14.10;102097.00;;;;5092850;28;20278;-82
2022/05/07 01:54:08;;;;;;;2.00;1.90;;;14.40;99.90;14.50;102094.00;;;;5092543;28;20185;-82
2022/05/07 01:56:40;;;;;;;3.13;2.87;;;14.50;99.90;13.90;102081.00;;;;5086794;28;20219;-81
2022/05/07 01:59:08;;;;;;;1.27;0.80;;;14.40;99.90;13.80;102071.00;;;;5072053;28;20257;-81
2022/05/07 02:01:35;;;;;;;0.40;0.40;;;14.30;99.90;13.70;102096.00;;;;5088847;28;20639;-81
2022/05/07 02:04:01;;;;;;;2.77;2.57;;;14.20;99.90;14.30;102086.00;;;;5089075;28;20180;-81
2022/05/07 02:06:29;;;;;;;10.50;2.20;;;14.30;99.90;13.90;102097.00;;;;5088782;28;20210;-81
2022/05/07 02:08:55;;;;;;;0.40;0.40;;;14.20;99.90;13.50;102093.00;;;;5088575;28;20643;-81
2022/05/07 02:11:21;;;;;;;2.00;1.60;;;14.00;99.90;13.10;102060.00;;;;5086879;28;20242;-82
2022/05/07 02:13:47;;;;;;;3.10;2.80;;;13.80;99.90;13.70;102092.00;;;;5089172;28;20270;-83
2022/05/07 02:16:15;;;;;;;0.97;0.97;;;13.90;99.90;13.80;102094.00;;;;5088662;28;20222;-82
2022/05/07 02:18:46;;;;;;;1.57;1.57;;;14.10;99.90;13.30;102049.00;;;;5087787;28;20309;-82
2022/05/07 02:21:12;;;;;;;0.60;0.60;;;13.80;99.90;13.80;102088.00;;;;5088614;28;20182;-82
2022/05/07 02:23:38;;;;;;;0.80;0.80;;;13.90;99.90;13.60;102095.00;;;;5071915;28;20537;-83
2022/05/07 02:26:07;;;;;;;1.23;1.23;;;14.00;99.90;13.70;102052.00;;;;5097284;28;20181;-83
2022/05/07 02:28:33;;;;;;;2.30;1.03;;;14.00;99.90;13.30;102086.00;;;;5108112;28;20548;-82
2022/05/07 02:30:58;;;;;;;0.50;0.50;;;13.80;99.90;13.70;102094.00;;;;5108560;28;20203;-82
2022/05/07 02:33:29;;;;;;;2.63;2.43;;;13.90;99.90;13.40;102062.00;;;;5091516;28;20193;-82
2022/05/07 02:35:57;;;;;;;1.57;1.47;;;13.80;99.90;13.50;102101.00;;;;5108721;28;20178;-82
2022/05/07 02:38:25;;;;;;;3.80;1.50;;;13.80;99.90;13.30;102101.00;;;;5093189;28;20174;-82
2022/05/07 02:43:37;;;;;;;0.60;0.60;;;13.60;99.90;12.80;102048.00;;;;5084422;28;20250;-83
2022/05/07 02:46:11;;;;;;;2.23;2.13;;;13.40;99.90;13.20;102053.00;;;;5107534;28;20598;-82
2022/05/07 02:48:37;;;;;;;1.53;1.43;;;13.50;99.90;13.20;102091.00;;;;5093169;28;20189;-83
2022/05/07 02:51:08;;;;;;;0.60;0.60;;;13.50;99.90;13.40;102099.00;;;;5091355;28;20640;-79
2022/05/07 02:53:36;;;;;;;2.33;2.13;;;13.60;99.90;13.20;102049.00;;;;5108453;28;20185;-79
2022/05/07 02:56:02;;;;;;;1.37;1.27;;;13.50;99.90;13.10;102094.00;;;;5108190;28;20224;-78
2022/05/07 02:58:28;;;;;;;3.20;2.33;;;13.50;99.90;13.40;102065.00;;;;5108375;28;20525;-78
2022/05/07 03:01:00;;;;;;;0.80;0.80;;;13.60;99.90;13.20;102107.00;;;;5108621;28;20191;-77
2022/05/07 03:03:32;;;;;;;3.63;2.73;;;13.60;99.90;13.00;102103.00;;;;5108720;28;20240;-76
2022/05/07 03:06:00;;;;;;;0.40;0.40;;;13.50;99.90;12.60;102093.00;;;;5091795;28;20187;-79
2022/05/07 03:08:27;;;;;;;2.83;2.47;;;13.30;99.90;13.30;102117.00;;;;5107772;28;20525;-80
2022/05/07 03:10:55;;;;;;;3.17;1.57;;;13.40;99.90;12.50;102100.00;;;;5108058;28;20222;-79
2022/05/07 03:13:24;;;;;;;0.30;0.30;;;13.30;99.90;12.70;102097.00;;;;5107014;28;20182;-77
2022/05/07 03:15:52;;;;;;;0.40;0.40;;;13.20;99.90;12.60;102084.00;;;;5090798;28;20179;-79
2022/05/07 03:18:20;;;;;;;3.50;2.60;;;13.20;99.90;13.00;102062.00;;;;5093253;28;20670;-77
2022/05/07 03:20:52;;;;;;;0.80;0.80;;;13.30;99.90;12.80;102100.00;;;;5094819;28;20181;-77
2022/05/07 03:23:25;;;;;;;1.17;1.17;;;13.30;99.90;12.60;102096.00;;;;5110342;28;20166;-77
2022/05/07 03:25:59;;;;;;;2.73;1.60;;;13.20;99.90;12.30;102111.00;;;;5096607;28;20220;-78
2022/05/07 03:28:30;;;;;;;7.03;5.10;;;13.00;99.90;12.60;102065.00;;;;5112517;28;20228;-78
2022/05/07 03:30:59;;;;;;;5.03;3.77;;;13.00;99.90;12.70;102093.00;;;;5094212;28;20242;-78
2022/05/07 03:33:30;;;;;;;1.27;1.03;;;13.10;99.90;12.80;102116.00;;;;5095686;28;20290;-79
2022/05/07 03:35:59;;;;;;;1.23;1.20;;;13.10;99.90;12.70;102105.00;;;;5112277;28;20181;-78
2022/05/07 03:38:27;;;;;;;7.20;2.83;;;13.10;99.90;12.80;102104.00;;;;5110870;28;20183;-79
2022/05/07 03:40:57;;;;;;;0.80;0.80;;;13.20;99.90;12.50;102105.00;;;;5095337;28;20651;-78
2022/05/07 03:43:33;;;;;;;2.40;1.50;;;13.00;99.90;12.40;102101.00;;;;5096322;28;20190;-79
2022/05/07 03:46:02;;;;;;;5.23;3.30;;;12.90;99.90;12.60;102056.00;;;;5111877;28;20176;-79
2022/05/07 03:48:29;;;;;;;0.40;0.40;;;13.00;99.90;12.20;102099.00;;;;5111160;28;20621;-79
2022/05/07 03:50:57;;;;;;;4.10;3.70;;;12.80;99.90;12.40;102092.00;;;;5110195;28;20166;-79
2022/05/07 03:53:32;;;;;;;2.20;2.10;;;12.80;99.90;12.10;102112.00;;;;5094432;28;20810;-79
2022/05/07 03:56:06;;;;;;;2.37;1.20;;;12.80;99.90;12.50;102114.00;;;;5111125;28;20264;-79
2022/05/07 03:58:35;;;;;;;1.23;0.83;;;12.80;99.90;12.70;102072.00;;;;5093967;28;20194;-77
2022/05/07 04:01:02;;;;;;;3.23;1.53;;;13.00;99.90;12.40;102086.00;;;;5095643;28;20239;-76
2022/05/07 04:03:31;;;;;;;0.63;0.63;;;13.00;99.90;12.30;102086.00;;;;5094543;28;20269;-77
2022/05/07 04:05:59;;;;;;;0.40;0.40;;;12.80;99.90;12.50;102079.00;;;;5095904;28;20182;-77
2022/05/07 04:08:30;;;;;;;2.03;1.93;;;12.90;99.90;12.70;102107.00;;;;5071116;28;20185;-77
2022/05/07 04:11:06;;;;;;;0.60;0.60;;;13.00;99.90;12.60;102119.00;;;;5073446;28;20220;-77
2022/05/07 04:13:37;;;;;;;2.83;1.60;;;13.00;99.90;12.60;102116.00;;;;5074692;28;20173;-77
2022/05/07 04:16:04;;;;;;;1.83;1.73;;;13.10;99.90;12.10;102088.00;;;;5075414;28;20180;-76
2022/05/07 04:18:37;;;;;;;0.30;0.30;;;12.80;99.90;12.40;102125.00;;;;5074310;28;20185;-77
2022/05/07 04:21:05;;;;;;;1.67;1.57;;;12.90;99.90;12.10;102129.00;;;;5073693;28;20538;-77
2022/05/07 04:23:34;;;;;;;2.27;1.27;;;12.80;99.90;12.30;102136.00;;;;5073521;28;20193;-78
2022/05/07 04:25:59;;;;;;;0.30;0.30;;;12.70;99.90;12.30;102119.00;;;;5074685;28;20183;-79
2022/05/07 04:28:25;;;;;;;0.67;0.67;;;12.80;99.90;12.00;102144.00;;;;5111174;28;20685;-79
2022/05/07 04:30:51;;;;;;;0.40;0.40;;;12.70;99.90;12.00;102126.00;;;;5095270;28;20569;-81
2022/05/07 04:33:20;;;;;;;0.50;0.50;;;12.60;99.90;11.90;102143.00;;;;5110711;28;20205;-78
2022/05/07 04:35:48;;;;;;;0.50;0.50;;;12.50;99.90;12.00;102143.00;;;;5095431;28;20176;-83
2022/05/07 04:38:16;;;;;;;3.77;3.57;;;12.50;99.90;12.00;102143.00;;;;5110762;28;20289;-83
2022/05/07 04:40:48;;;;;;;3.67;2.30;;;12.50;99.90;12.10;102135.00;;;;5110356;28;20260;-82
2022/05/07 04:43:17;;;;;;;0.30;0.30;;;12.50;99.90;12.40;102136.00;;;;5109977;28;20186;-80
2022/05/07 04:45:47;;;;;;;4.30;3.93;;;12.70;99.90;12.90;102091.00;;;;5109836;28;20544;-81
2022/05/07 04:48:19;;;;;;;6.23;2.40;;;13.00;99.90;12.70;102094.00;;;;5109821;28;20811;-82
2022/05/07 04:50:45;;;;;;;0.67;0.67;;;13.10;99.90;12.40;102149.00;;;;5095265;28;20267;-83
2022/05/07 04:53:13;;;;;;;0.30;0.30;;;12.90;99.90;12.60;102144.00;;;;5109953;28;20682;-83
2022/05/07 04:55:44;;;;;;;1.87;1.77;;;12.90;99.90;12.90;102157.00;;;;5108777;28;20179;-83
2022/05/07 04:58:10;;;;;;;2.77;1.63;;;13.10;99.90;12.40;102147.00;;;;5110362;28;20178;-83
2022/05/07 05:00:36;;;;;;;0.30;0.30;;;12.90;99.90;12.50;102150.00;;;;5093677;28;20188;-83
2022/05/07 05:03:04;;;;;;;0.30;0.30;;;12.80;99.90;13.20;102098.00;;;;5110898;28;20182;-83
2022/05/07 05:05:30;;;;;;;0.30;0.30;;;13.10;99.90;13.00;102132.00;;;;5110556;28;20644;-86
2022/05/07 05:08:10;;;;;;;0.40;0.40;;;13.20;99.90;12.80;102143.00;;;;5108435;28;20186;-84
2022/05/07 05:10:38;;;;;;;0.50;0.50;;;13.10;99.90;12.60;102147.00;;;;5094439;28;20186;-80
2022/05/07 05:13:09;;;;;;;1.13;1.03;;;13.20;99.90;12.40;102149.00;;;;5110431;28;20223;-80
2022/05/07 05:15:38;;;;;;;2.77;2.50;;;13.00;99.90;13.10;102152.00;;;;5109701;28;20163;-80
2022/05/07 05:18:07;;;;;;;2.27;2.07;;;13.10;99.90;12.90;102138.00;;;;5110327;28;20162;-80
2022/05/07 05:20:36;;;;;;;0.40;0.40;;;13.20;99.90;13.50;102087.00;;;;5110067;28;20189;-80
2022/05/07 05:23:02;;;;;;;0.40;0.40;;;13.40;99.90;13.50;102165.00;;;;5109298;28;20173;-80
2022/05/07 05:25:34;;;;;;;0.47;0.47;;;13.60;99.90;12.60;102158.00;;;;5093195;28;20750;-80
2022/05/07 05:28:02;;;;;;;0.30;0.30;;;13.30;99.90;12.70;102172.00;;;;5108439;28;20186;-81
2022/05/07 05:30:28;;;;;;;2.53;0.80;;;13.20;99.90;12.90;102182.00;;;;5108232;28;20174;-79
2022/05/07 05:32:59;;;;;;;0.87;0.87;;;13.20;99.90;12.90;102165.00;;;;5109330;28;20624;-80
2022/05/07 05:35:25;;;;;;;3.07;2.87;;;13.40;99.90;12.80;102178.00;;;;5109395;28;20178;-81
2022/05/07 05:37:54;;;;;;;1.73;1.63;;;13.30;99.90;13.70;102158.00;;;;5108100;28;20173;-79
2022/05/07 05:40:23;;;;;;;3.20;2.77;;;13.70;99.90;13.50;102167.00;;;;5108810;28;20175;-79
2022/05/07 05:42:55;;;;;;;4.20;1.83;;;13.70;99.90;13.80;102171.00;;;;5092412;28;20515;-79
2022/05/07 05:45:27;;;;;;;7.63;3.70;;;14.00;99.90;13.90;102139.00;;;;5109594;28;20190;-79
2022/05/07 05:47:55;;;;;;;3.20;2.20;;;14.10;99.90;14.30;102137.00;;;;5109441;28;20191;-80
2022/05/07 05:50:27;;;;;;;0.23;0.23;;;14.40;99.90;13.60;102161.00;;;;5108331;28;20236;-79
2022/05/07 05:53:04;;;;;;;1.17;1.07;;;14.20;99.90;14.00;102130.00;;;;5107623;28;20208;-79
2022/05/07 05:55:36;;;;;;;0.30;0.30;;;14.20;99.90;15.50;102143.00;;;;5092605;28;20189;-79
2022/05/07 05:58:09;;;;;;;0.20;0.20;;;15.10;99.90;16.10;102153.00;;;;5108950;28;20210;-81
2022/05/07 06:00:43;;;;;;;0.50;0.50;;;15.80;99.90;15.90;102134.00;;;;5109562;28;20274;-82
2022/05/07 06:03:14;;;;;;;0.30;0.30;;;15.90;99.90;15.80;102169.00;;;;5091973;28;20661;-83
2022/05/07 06:05:53;;;;;;;0.20;0.20;;;16.00;99.90;17.30;102159.00;;;;5108427;28;20177;-81
2022/05/07 06:08:22;;;;;;;0.30;0.30;;;16.70;99.90;18.50;102165.00;;;;5108865;28;20188;-83
2022/05/07 06:10:58;;;;;;;0.73;0.73;;;17.90;99.90;18.80;102187.00;;;;5108652;28;20180;-84
2022/05/07 06:13:34;;;;;;;1.73;0.70;;;18.60;99.90;19.00;102193.00;;;;5109082;28;20195;-83
2022/05/07 06:16:08;;;;;;;0.22;0.22;;;18.90;99.90;20.40;102192.00;;;;5108294;28;20170;-83
2022/05/07 06:18:34;;;;;;;0.73;0.70;;;19.50;99.90;21.40;102236.00;;;;5091942;28;20175;-81
2022/05/07 06:21:02;;;;;;;0.10;0.10;;;20.40;99.90;21.80;102218.00;;;;5108126;28;20271;-82
2022/05/07 06:23:37;;;;;;;0.32;0.32;;;21.00;99.90;22.30;102242.00;;;;5092967;28;20177;-81
2022/05/07 06:29:04;;;;;;;7.13;1.88;;;22.00;99.90;21.30;102276.00;;;;5106427;28;20200;-83
2022/05/07 06:31:33;;;;;;;1.73;1.60;;;21.40;99.90;21.40;102268.00;;;;5109200;28;20577;-82
2022/05/07 06:34:09;;;;;;;0.77;0.77;;;21.10;99.90;21.60;102257.00;;;;5110053;28;20184;-82
2022/05/07 06:36:38;;;;;;;0.28;0.28;;;21.50;99.90;23.70;102258.00;;;;5107919;28;20168;-82
2022/05/07 06:39:12;;;;;;;0.10;0.10;;;22.60;99.90;22.80;102267.00;;;;5109635;28;20196;-83
2022/05/07 06:41:53;;;;;;;0.82;0.82;;;22.70;99.90;23.30;102303.00;;;;5108530;28;20181;-86
2022/05/07 06:44:29;;;;;;;0.10;0.10;;;22.90;99.90;22.40;102267.00;;;;5091129;28;20165;-80
2022/05/07 06:47:08;;;;;;;0.10;0.10;;;22.40;99.90;23.60;102319.00;;;;5108796;28;20172;-84
2022/05/07 06:49:37;;;;;;;0.20;0.20;;;22.90;99.90;19.60;102292.00;;;;5108592;28;20517;-75
2022/05/07 06:52:10;;;;;;;0.40;0.40;;;21.10;99.90;19.70;102261.00;;;;5108080;28;20234;-76
2022/05/07 06:54:44;;;;;;;0.38;0.38;;;20.00;99.90;21.00;102268.00;;;;5111662;28;20200;-77
2022/05/07 06:57:16;;;;;;;0.17;0.17;;;20.10;99.90;23.70;102312.00;;;;5112275;28;20161;-79
2022/05/07 06:59:50;;;;;;;0.30;0.30;;;22.20;99.90;20.60;102267.00;;;;5113057;28;20269;-81
2022/05/07 07:02:23;;;;;;;0.10;0.10;;;21.40;99.90;24.00;102294.00;;;;5112467;28;20228;-79
2022/05/07 07:05:00;;;;;;;1.33;1.33;;;22.70;99.90;25.40;102330.00;;;;5111940;28;20268;-78
2022/05/07 07:07:35;;;;;;;0.10;0.10;;;24.30;99.90;27.00;102328.00;;;;5111958;28;20181;-84
2022/05/07 07:10:09;;;;;;;0.65;0.65;;;25.60;99.90;25.30;102349.00;;;;5111803;28;20230;-78
2022/05/07 07:12:42;;;;;;;0.10;0.10;;;25.20;99.90;23.10;102329.00;;;;5111299;28;20318;-80
2022/05/07 07:15:13;;;;;;;0.20;0.20;;;23.80;99.90;27.10;102350.00;;;;5077162;28;20208;-80
2022/05/07 07:17:41;;;;;;;0.10;0.10;;;25.30;99.90;27.50;102347.00;;;;5097103;28;20200;-79
2022/05/07 07:20:14;;;;;;;0.17;0.17;;;26.00;99.90;27.20;102338.00;;;;5094260;28;20184;-79
2022/05/07 07:22:47;;;;;;;0.20;0.20;;;26.70;99.90;28.00;102325.00;;;;5112092;28;20281;-78
2022/05/07 07:25:19;;;;;;;0.30;0.30;;;27.50;99.90;27.90;102304.00;;;;5112721;28;20265;-81
2022/05/07 07:27:50;;;;;;;0.20;0.20;;;27.50;99.90;27.40;102339.00;;;;5094560;28;20185;-81
2022/05/07 07:30:26;;;;;;;0.10;0.10;;;26.90;99.90;28.50;102334.00;;;;5095152;28;20192;-81
2022/05/07 07:33:00;;;;;;;0.10;0.10;;;27.50;99.90;27.60;102329.00;;;;5112187;28;20697;-81
2022/05/07 07:35:39;;;;;;;0.20;0.20;;;27.30;99.90;25.20;102347.00;;;;5110523;28;20537;-80
2022/05/07 07:38:07;;;;;;;0.10;0.10;;;26.00;99.90;26.00;102346.00;;;;5086486;28;20659;-81
2022/05/07 07:40:49;;;;;;;0.73;0.73;;;25.40;99.90;24.70;102352.00;;;;5091685;28;20178;-81
2022/05/07 07:43:21;;;;;;;0.35;0.32;;;24.80;99.90;24.70;102348.00;;;;5083890;28;20562;-81
2022/05/07 07:48:36;;;;;;;0.30;0.30;;;22.60;99.90;21.30;102321.00;;;;5094455;28;20662;-81
2022/05/07 07:51:08;;;;;;;1.60;1.33;;;21.60;99.90;21.10;102324.00;;;;5094795;28;20165;-81
2022/05/07 07:53:40;;;;;;;0.75;0.75;;;21.30;99.90;21.50;102320.00;;;;5095292;28;20232;-81
2022/05/07 07:56:12;;;;;;;1.20;0.75;;;21.10;99.90;20.50;102293.00;;;;5095951;28;20656;-81
2022/05/07 07:58:48;;;;;;;0.10;0.10;;;20.70;99.90;21.50;102291.00;;;;5085590;28;20223;-81
2022/05/07 08:01:16;;;;;;;0.55;0.55;;;20.80;99.90;20.20;102238.00;;;;5110829;28;20436;-80
2022/05/07 08:03:47;;;;;;;0.10;0.10;;;20.80;99.90;20.60;102274.00;;;;5090354;28;20189;-81
2022/05/07 08:06:15;;;;;;;0.35;0.35;;;20.70;99.90;21.60;102277.00;;;;5074412;28;20570;-76
2022/05/07 08:11:46;;;;;;;0.10;0.10;;;20.80;99.90;22.40;102295.00;;;;5074017;28;20647;-82
2022/05/07 08:14:13;;;;;;;0.10;0.10;;;21.60;99.90;23.00;102289.00;;;;5077267;28;20268;-78
2022/05/07 08:16:41;;;;;;;0.10;0.10;;;22.20;99.90;21.90;102316.00;;;;5056855;28;20240;-76
2022/05/07 08:19:08;;;;;;;4.78;1.10;;;22.20;99.90;20.70;102295.00;;;;5075398;28;20154;-77
2022/05/07 08:21:37;;;;;;;0.45;0.45;;;21.20;99.90;20.70;102300.00;;;;5086885;28;20693;-79
2022/05/07 08:24:05;;;;;;;0.52;0.52;;;20.90;99.90;21.30;102292.00;;;;5110796;28;20177;-80
2022/05/07 08:26:34;;;;;;;0.10;0.10;;;20.80;99.90;22.00;102312.00;;;;5111323;28;20770;-82
2022/05/07 08:29:00;;;;;;;0.60;0.60;;;21.40;99.90;22.30;102321.00;;;;5095424;28;20170;-82
2022/05/07 08:31:28;;;;;;;0.10;0.10;;;21.70;99.90;22.50;102327.00;;;;5095293;28;20207;-85
2022/05/07 08:34:17;;;;;;;0.10;0.10;;;22.10;99.90;22.70;102327.00;;;;5075412;28;20270;-67
2022/05/07 08:36:45;;;;;;;1.85;1.67;;;22.40;99.90;21.40;102303.00;;;;5079168;28;20228;-84
2022/05/07 08:39:11;;;;;;;0.30;0.30;;;21.80;99.90;22.20;102311.00;;;;5092520;28;20183;-84
2022/05/07 08:41:36;;;;;;;2.08;1.83;;;22.10;99.90;21.60;102269.00;;;;5111000;28;20558;-83
2022/05/07 08:44:05;;;;;;;2.05;0.43;;;22.00;99.90;22.30;102318.00;;;;5110859;28;20615;-83
2022/05/07 08:46:33;;;;;;;0.73;0.73;;;21.80;99.90;22.50;102297.00;;;;5111038;28;20161;-84
2022/05/07 08:49:01;;;;;;;1.38;1.27;;;22.10;99.90;22.70;102332.00;;;;5093952;28;20192;-83
2022/05/07 08:51:35;;;;;;;1.48;1.23;;;22.50;99.90;22.20;102321.00;;;;5110868;28;20170;-83
2022/05/07 08:54:04;;;;;;;2.08;1.98;;;22.50;99.90;21.90;102340.00;;;;5093749;28;20259;-84
2022/05/07 08:56:35;;;;;;;0.28;0.28;;;22.30;99.90;21.40;102310.00;;;;5109477;28;20181;-85
2022/05/07 08:59:18;;;;;;;0.10;0.10;;;21.70;99.90;23.00;102333.00;;;;5074172;28;20186;-79
2022/05/07 09:02:29;;;;;;;0.63;0.63;;;22.40;99.90;23.80;102359.00;;;;5090100;28;20216;-78
2022/05/07 09:05:42;;;;;;;1.17;1.10;;;23.20;99.90;22.90;102350.00;;;;5088847;28;20187;-79
2022/05/07 09:08:44;;;;;;;0.10;0.10;;;22.90;99.90;24.00;102356.00;;;;5078163;28;20205;-78
2022/05/07 09:11:58;;;;;;;2.20;0.90;;;23.20;99.90;24.10;102377.00;;;;5089905;28;20234;-78
2022/05/07 09:15:25;;;;;;;0.10;0.10;;;23.70;99.90;25.70;102387.00;;;;5089891;28;20185;-80
2022/05/07 09:18:34;;;;;;;1.08;1.05;;;24.80;99.90;24.40;102340.00;;;;5100598;28;20191;-79
2022/05/07 09:21:29;;;;;;;0.55;0.55;;;24.30;99.90;22.70;102377.00;;;;5093300;28;20180;-79
2022/05/07 09:24:02;;;;;;;3.63;3.33;;;23.20;99.90;23.10;102332.00;;;;5087650;28;20332;-80
2022/05/07 09:26:43;;;;;;;1.85;0.35;;;22.90;99.90;23.00;102354.00;;;;5080672;28;20188;-80
2022/05/07 09:29:15;;;;;;;0.90;0.63;;;22.80;99.90;23.30;102346.00;;;;5086891;28;20195;-80
2022/05/07 09:31:50;;;;;;;0.98;0.98;;;22.80;99.90;23.30;102371.00;;;;5072554;28;20231;-81
2022/05/07 09:37:20;;;;;;;0.10;0.10;;;22.90;99.90;23.40;102374.00;;;;5094233;28;20191;-81
2022/05/07 09:40:21;;;;;;;0.10;0.10;;;23.10;99.90;23.10;102363.00;;;;5092690;28;20536;-82
2022/05/07 09:43:10;;;;;;;1.98;1.70;;;23.20;99.90;24.00;102383.00;;;;5092739;28;20349;-84
2022/05/07 09:46:32;;;;;;;0.95;0.95;;;23.40;99.90;23.60;102334.00;;;;5091541;28;20191;-87
2022/05/07 09:50:19;;;;;;;0.20;0.20;;;23.50;99.90;24.60;102393.00;;;;5092031;28;20177;-84
2022/05/07 09:58:21;;;;;;;0.68;0.68;;;24.30;99.90;25.20;102391.00;;;;5107013;28;20187;-86
2022/05/07 10:01:00;;;;;;;1.15;0.88;;;24.60;99.90;25.00;102367.00;;;;5093730;28;20172;-86
2022/05/07 10:03:41;;;;;;;4.10;1.88;;;24.70;99.90;24.70;102346.00;;;;5093834;28;20291;-86
2022/05/07 10:06:31;;;;;;;1.00;1.00;;;24.60;99.90;25.50;102402.00;;;;5109627;28;20208;-86
2022/05/07 10:08:59;;;;;;;1.45;0.73;;;24.90;99.90;26.10;102405.00;;;;5110132;28;20204;-87
2022/05/07 10:11:25;;;;;;;6.22;2.58;;;25.40;99.90;25.50;102403.00;;;;5094342;28;20179;-86
2022/05/07 10:13:56;;;;;;;1.38;0.93;;;25.60;99.90;24.90;102396.00;;;;5109516;28;20240;-84
2022/05/07 10:16:30;;;;;;;0.10;0.10;;;25.30;99.90;25.90;102407.00;;;;5064734;28;20177;-86
2022/05/07 10:19:13;;;;;;;1.40;0.52;;;25.40;99.90;27.10;102396.00;;;;5072412;28;20169;-80
2022/05/07 10:34:03;;;;;;;0.43;0.43;;;25.60;99.90;26.70;102399.00;;;;5110722;27;21086;-78
2022/05/07 10:36:37;;;;;;;0.10;0.10;;;26.20;99.90;27.30;102404.00;;;;5105465;28;20239;-77
2022/05/07 10:39:36;;;;;;;0.17;0.17;;;26.80;99.90;27.80;102408.00;;;;5089425;28;20648;-78
2022/05/07 10:42:19;;;;;;;1.75;1.48;;;27.20;99.90;27.70;102384.00;;;;5089711;28;20199;-77
2022/05/07 10:45:20;;;;;;;3.00;1.35;;;27.30;99.90;26.80;102419.00;;;;5106467;28;20188;-78
2022/05/07 10:47:57;;;;;;;0.25;0.25;;;26.80;99.90;26.30;102409.00;;;;5106375;28;20623;-77
2022/05/07 10:50:38;;;;;;;0.20;0.20;;;26.30;99.90;25.10;102404.00;;;;5089380;28;20184;-76
2022/05/07 10:53:06;;;;;;;0.20;0.20;;;25.70;99.90;25.80;102382.00;;;;5089178;28;20196;-78
2022/05/07 10:55:35;;;;;;;0.20;0.20;;;25.40;99.90;24.30;102394.00;;;;5090344;28;20184;-78
2022/05/07 10:58:01;;;;;;;0.90;0.55;;;24.70;99.90;24.70;102377.00;;;;5088939;28;20711;-78
2022/05/07 11:00:30;;;;;;;0.25;0.25;;;24.70;99.90;25.40;102393.00;;;;5090536;28;20739;-78
2022/05/07 11:03:27;;;;;;;0.20;0.20;;;25.00;99.90;25.30;102399.00;;;;5089020;28;20227;-78
2022/05/07 11:06:00;;;;;;;0.10;0.10;;;25.00;99.90;25.30;102404.00;;;;5089117;28;20177;-78
2022/05/07 11:08:32;;;;;;;0.45;0.45;;;24.90;99.90;24.30;102395.00;;;;5105962;28;20539;-78
2022/05/07 11:11:15;;;;;;;0.43;0.40;;;24.40;99.90;25.50;102401.00;;;;5105685;28;20177;-74
2022/05/07 11:13:57;;;;;;;0.40;0.40;;;24.90;99.90;25.20;102394.00;;;;5105808;28;20165;-74
2022/05/07 11:16:28;;;;;;;2.55;2.38;;;24.90;99.90;25.00;102404.00;;;;5090069;28;20173;-75
2022/05/07 11:19:02;;;;;;;2.08;1.50;;;24.70;99.90;24.00;102378.00;;;;5089175;28;20215;-79
2022/05/07 11:21:30;;;;;;;0.98;0.73;;;24.10;99.90;22.80;102384.00;;;;5089101;28;20216;-74
2022/05/07 11:24:09;;;;;;;4.80;1.75;;;23.30;99.90;23.70;102390.00;;;;5089095;28;20196;-74
2022/05/07 11:26:35;;;;;;;0.25;0.25;;;23.50;99.90;24.30;102359.00;;;;5088230;28;20181;-74
2022/05/07 11:29:06;;;;;;;0.50;0.50;;;23.80;99.90;24.50;102374.00;;;;5105656;28;20179;-74
2022/05/07 11:31:35;;;;;;;0.10;0.10;;;24.00;99.90;25.10;102354.00;;;;5104933;28;20224;-74
2022/05/07 11:34:56;;;;;;;0.38;0.38;;;24.40;99.90;25.20;102394.00;;;;5088125;28;20181;-73
2022/05/07 11:38:08;;;;;;;3.15;2.50;;;24.90;99.90;24.70;102395.00;;;;4998989;28;20230;-74
2022/05/07 11:41:14;;;;;;;0.65;0.65;;;24.90;99.90;24.10;102398.00;;;;5047585;28;20240;-74
2022/05/07 11:47:50;;;;;;;0.40;0.40;;;23.40;99.90;21.80;102364.00;;;;5022931;28;20191;-72
2022/05/07 11:51:02;;;;;;;0.85;0.85;;;22.50;99.90;22.50;102357.00;;;;5034688;28;20240;-72
2022/05/07 11:54:26;;;;;;;1.38;1.30;;;22.30;99.90;23.00;102374.00;;;;5035929;28;20285;-73
2022/05/07 11:57:50;;;;;;;0.10;0.10;;;22.70;99.90;22.20;102328.00;;;;5032309;28;20544;-72